createdAt,value
2022-12-28T00:02:16.388Z,8.88
2022-12-28T00:04:43.197Z,9.02
2022-12-28T00:07:09.992Z,8.88
2022-12-28T00:09:36.685Z,8.80
2022-12-28T00:12:03.504Z,10.18
2022-12-28T00:14:30.315Z,7.63
2022-12-28T00:16:57.124Z,8.77
2022-12-28T00:19:23.838Z,8.70
2022-12-28T00:21:54.640Z,9.60
2022-12-28T00:24:24.202Z,8.02
2022-12-28T00:26:51.683Z,9.02
2022-12-28T00:29:19.118Z,9.23
2022-12-28T00:31:46.316Z,8.60
2022-12-28T00:34:13.455Z,8.23
2022-12-28T00:37:10.413Z,8.43
2022-12-28T00:39:27.026Z,8.07
2022-12-28T00:41:53.714Z,8.45
2022-12-28T00:44:20.452Z,8.32
2022-12-28T00:46:47.223Z,8.00
2022-12-28T00:49:13.921Z,7.78
2022-12-28T00:51:40.709Z,8.15
2022-12-28T00:54:07.578Z,7.05
2022-12-28T00:56:34.317Z,7.28
2022-12-28T00:59:01.470Z,7.85
2022-12-28T01:01:29.089Z,7.10
2022-12-28T01:03:57.425Z,7.35
2022-12-28T01:06:24.588Z,7.35
2022-12-28T01:08:51.613Z,7.35
2022-12-28T01:11:24.711Z,6.82
2022-12-28T01:13:52.829Z,6.22
2022-12-28T01:16:22.875Z,6.57
2022-12-28T01:18:52.643Z,7.40
2022-12-28T01:21:22.857Z,7.07
2022-12-28T01:23:49.742Z,6.30
2022-12-28T01:26:16.842Z,7.43
2022-12-28T01:28:43.737Z,6.28
2022-12-28T01:31:13.227Z,6.45
2022-12-28T01:33:40.549Z,6.20
2022-12-28T01:36:27.962Z,6.40
2022-12-28T01:38:59.951Z,6.25
2022-12-28T01:41:28.947Z,6.10
2022-12-28T01:43:55.647Z,5.97
2022-12-28T01:46:31.794Z,6.03
2022-12-28T01:49:03.617Z,6.28
2022-12-28T01:51:35.713Z,5.90
2022-12-28T01:54:04.698Z,6.20
2022-12-28T01:56:32.021Z,5.85
2022-12-28T01:58:59.156Z,5.32
2022-12-28T02:01:26.955Z,6.00
2022-12-28T02:03:53.795Z,6.13
2022-12-28T02:06:20.664Z,5.28
2022-12-28T02:08:56.088Z,5.38
2022-12-28T02:11:23.733Z,5.35
2022-12-28T02:13:52.087Z,5.60
2022-12-28T02:16:19.587Z,5.10
2022-12-28T02:18:47.871Z,4.88
2022-12-28T02:21:38.538Z,4.97
2022-12-28T02:24:26.536Z,5.32
2022-12-28T02:27:16.844Z,4.80
2022-12-28T02:29:58.370Z,4.72
2022-12-28T02:33:00.392Z,5.55
2022-12-28T02:35:35.290Z,5.10
2022-12-28T02:38:11.914Z,5.50
2022-12-28T02:40:45.901Z,4.90
2022-12-28T02:43:13.524Z,4.10
2022-12-28T02:46:01.728Z,4.97
2022-12-28T02:48:47.023Z,4.30
2022-12-28T02:51:46.505Z,4.18
2022-12-28T02:54:46.826Z,5.18
2022-12-28T02:57:26.763Z,4.22
2022-12-28T03:00:06.940Z,4.15
2022-12-28T03:02:56.746Z,3.60
2022-12-28T03:06:15.995Z,3.42
2022-12-28T03:08:56.268Z,4.65
2022-12-28T03:11:42.776Z,4.72
2022-12-28T03:14:14.747Z,4.60
2022-12-28T03:17:08.923Z,4.85
2022-12-28T03:20:01.889Z,4.07
2022-12-28T03:22:49.746Z,3.83
2022-12-28T03:25:40.294Z,3.92
2022-12-28T03:28:28.816Z,3.80
2022-12-28T03:31:09.264Z,4.03
2022-12-28T03:33:42.929Z,3.80
2022-12-28T03:36:34.741Z,3.92
2022-12-28T03:39:11.121Z,3.58
2022-12-28T03:42:55.085Z,4.00
2022-12-28T03:45:47.526Z,3.45
2022-12-28T03:48:16.304Z,4.20
2022-12-28T03:50:46.683Z,3.17
2022-12-28T03:53:13.955Z,3.90
2022-12-28T03:55:40.798Z,3.63
2022-12-28T03:58:07.680Z,4.45
2022-12-28T04:00:34.511Z,3.85
2022-12-28T04:03:01.382Z,4.40
2022-12-28T04:05:28.155Z,3.35
2022-12-28T04:07:54.987Z,3.85
2022-12-28T04:10:21.765Z,3.65
2022-12-28T04:12:48.607Z,3.72
2022-12-28T04:15:15.494Z,4.85
2022-12-28T04:17:42.264Z,3.50
2022-12-28T04:20:09.538Z,3.45
2022-12-28T04:22:36.393Z,3.70
2022-12-28T04:25:03.352Z,4.10
2022-12-28T04:27:30.110Z,3.67
2022-12-28T04:29:56.820Z,4.18
2022-12-28T04:32:23.546Z,3.13
2022-12-28T04:34:50.291Z,3.20
2022-12-28T04:37:17.044Z,3.20
2022-12-28T04:39:55.767Z,3.22
2022-12-28T04:42:25.564Z,3.58
2022-12-28T04:44:52.297Z,3.58
2022-12-28T04:47:19.293Z,3.40
2022-12-28T04:49:46.058Z,3.70
2022-12-28T04:52:12.953Z,3.17
2022-12-28T04:54:39.667Z,3.60
2022-12-28T04:57:06.921Z,3.55
2022-12-28T04:59:33.733Z,3.22
2022-12-28T05:02:00.807Z,3.05
2022-12-28T05:04:27.713Z,2.80
2022-12-28T05:06:54.544Z,2.60
2022-12-28T05:09:21.386Z,2.80
2022-12-28T05:11:48.153Z,3.20
2022-12-28T05:14:14.908Z,3.05
2022-12-28T05:16:42.385Z,2.80
2022-12-28T05:19:09.250Z,2.88
2022-12-28T05:21:36.319Z,3.53
2022-12-28T05:24:03.118Z,3.03
2022-12-28T05:26:30.148Z,3.08
2022-12-28T05:28:58.574Z,3.00
2022-12-28T05:31:26.271Z,3.00
2022-12-28T05:33:53.801Z,3.00
2022-12-28T05:36:23.062Z,2.50
2022-12-28T05:38:50.216Z,2.55
2022-12-28T05:41:27.946Z,2.50
2022-12-28T05:43:55.962Z,2.55
2022-12-28T05:46:25.671Z,2.10
2022-12-28T05:48:55.017Z,3.22
2022-12-28T05:51:23.319Z,2.67
2022-12-28T05:53:50.104Z,2.30
2022-12-28T05:56:19.213Z,2.30
2022-12-28T05:58:47.675Z,3.03
2022-12-28T06:01:18.092Z,3.30
2022-12-28T06:03:46.311Z,2.50
2022-12-28T06:06:16.325Z,2.17
2022-12-28T06:08:44.553Z,2.70
2022-12-28T06:11:14.444Z,2.80
2022-12-28T06:13:41.314Z,2.95
2022-12-28T06:16:11.326Z,2.55
2022-12-28T06:18:38.306Z,2.70
2022-12-28T06:21:07.947Z,2.50
2022-12-28T06:23:36.969Z,2.97
2022-12-28T06:26:07.887Z,2.15
2022-12-28T06:28:38.067Z,2.85
2022-12-28T06:31:13.554Z,2.53
2022-12-28T06:33:40.623Z,2.85
2022-12-28T06:36:22.245Z,2.60
2022-12-28T06:38:52.886Z,2.03
2022-12-28T06:41:22.379Z,2.28
2022-12-28T06:43:50.203Z,2.15
2022-12-28T06:46:19.057Z,2.30
2022-12-28T06:48:46.510Z,2.90
2022-12-28T06:51:18.935Z,2.05
2022-12-28T06:53:47.417Z,2.47
2022-12-28T06:56:17.078Z,2.20
2022-12-28T06:58:44.741Z,2.20
2022-12-28T07:01:18.064Z,2.42
2022-12-28T07:03:46.517Z,2.08
2022-12-28T07:06:16.571Z,2.33
2022-12-28T07:08:44.476Z,3.00
2022-12-28T07:11:13.797Z,2.42
2022-12-28T07:13:40.888Z,1.90
2022-12-28T07:16:13.150Z,2.50
2022-12-28T07:18:40.047Z,2.50
2022-12-28T07:21:10.590Z,3.35
2022-12-28T07:23:37.364Z,2.50
2022-12-28T07:26:13.535Z,3.53
2022-12-28T07:28:41.979Z,2.80
2022-12-28T07:31:13.875Z,2.30
2022-12-28T07:33:41.208Z,2.60
2022-12-28T07:36:10.424Z,2.90
2022-12-28T07:38:37.418Z,3.30
2022-12-28T07:41:06.938Z,3.40
2022-12-28T07:43:34.667Z,3.05
2022-12-28T07:46:09.248Z,2.83
2022-12-28T07:48:38.015Z,2.78
2022-12-28T07:51:21.562Z,2.65
2022-12-28T07:53:50.164Z,3.35
2022-12-28T07:56:18.132Z,3.17
2022-12-28T07:58:52.902Z,4.50
2022-12-28T08:01:23.399Z,4.53
2022-12-28T08:03:54.671Z,4.60
2022-12-28T08:06:24.957Z,3.15
2022-12-28T08:08:54.641Z,2.60
2022-12-28T08:11:24.204Z,3.40
2022-12-28T08:13:52.677Z,3.00
2022-12-28T08:16:20.903Z,2.47
2022-12-28T08:18:48.741Z,2.53
2022-12-28T08:21:17.898Z,2.65
2022-12-28T08:23:45.196Z,2.35
2022-12-28T08:26:16.627Z,3.00
2022-12-28T08:28:45.183Z,2.70
2022-12-28T08:31:18.619Z,3.03
2022-12-28T08:33:47.180Z,3.03
2022-12-28T08:36:14.700Z,3.13
2022-12-28T08:38:42.731Z,2.95
2022-12-28T08:41:16.886Z,2.38
2022-12-28T08:43:44.010Z,2.85
2022-12-28T08:46:19.905Z,3.40
2022-12-28T08:48:48.551Z,3.33
2022-12-28T08:51:19.492Z,2.80
2022-12-28T08:53:47.011Z,1.90
2022-12-28T08:56:17.009Z,2.20
2022-12-28T08:58:45.507Z,2.47
2022-12-28T09:01:40.835Z,2.15
2022-12-28T09:04:14.428Z,1.98
2022-12-28T09:06:41.413Z,1.98
2022-12-28T09:09:12.187Z,2.00
2022-12-28T09:11:39.893Z,2.15
2022-12-28T09:14:09.104Z,4.38
2022-12-28T09:16:37.617Z,2.13
2022-12-28T09:19:07.185Z,1.65
2022-12-28T09:21:36.753Z,2.03
2022-12-28T09:24:04.567Z,1.70
2022-12-28T09:26:34.345Z,1.20
2022-12-28T09:29:03.261Z,1.45
2022-12-28T09:31:31.857Z,1.90
2022-12-28T09:34:34.350Z,1.40
2022-12-28T09:36:45.478Z,1.00
2022-12-28T09:39:19.329Z,1.40
2022-12-28T09:41:54.943Z,1.80
2022-12-28T09:44:56.004Z,1.40
2022-12-28T09:47:40.269Z,1.60
2022-12-28T09:50:17.083Z,1.70
2022-12-28T09:52:59.166Z,1.77
2022-12-28T09:55:27.605Z,1.63
2022-12-28T09:57:57.345Z,1.63
2022-12-28T10:00:44.136Z,1.43
2022-12-28T10:03:23.789Z,2.30
2022-12-28T10:05:51.902Z,1.67
2022-12-28T10:08:22.685Z,1.13
2022-12-28T10:10:51.308Z,1.60
2022-12-28T10:16:21.116Z,1.30
2022-12-28T10:18:49.306Z,3.70
2022-12-28T10:21:19.910Z,1.90
2022-12-28T10:24:29.273Z,1.77
2022-12-28T10:26:37.503Z,1.80
2022-12-28T10:29:04.230Z,1.20
2022-12-28T10:31:35.509Z,1.17
2022-12-28T10:34:03.073Z,1.23
2022-12-28T10:36:34.655Z,1.53
2022-12-28T10:39:02.489Z,1.30
2022-12-28T10:41:36.741Z,1.40
2022-12-28T10:44:38.857Z,1.77
2022-12-28T10:47:18.148Z,2.10
2022-12-28T10:50:10.466Z,1.30
2022-12-28T10:52:38.145Z,1.70
2022-12-28T10:55:29.497Z,1.40
2022-12-28T10:58:28.173Z,3.20
2022-12-28T11:00:50.381Z,6.17
2022-12-28T11:03:23.741Z,2.70
2022-12-28T11:05:57.230Z,1.63
2022-12-28T11:08:24.380Z,1.37
2022-12-28T11:10:57.714Z,1.30
2022-12-28T11:13:24.615Z,0.80
2022-12-28T11:15:51.859Z,0.70
2022-12-28T11:18:19.948Z,0.70
2022-12-28T11:20:49.614Z,0.90
2022-12-28T11:23:22.256Z,0.60
2022-12-28T11:25:49.393Z,0.60
2022-12-28T11:28:19.690Z,1.03
2022-12-28T11:30:50.652Z,0.80
2022-12-28T11:33:42.197Z,1.00
2022-12-28T11:36:16.103Z,0.80
2022-12-28T11:38:53.940Z,0.63
2022-12-28T11:41:33.733Z,1.40
2022-12-28T11:44:04.564Z,0.80
2022-12-28T11:46:31.385Z,0.80
2022-12-28T11:49:23.839Z,1.07
2022-12-28T11:52:16.343Z,0.97
2022-12-28T11:55:33.924Z,1.00
2022-12-28T11:58:38.773Z,1.00
2022-12-28T12:01:06.051Z,1.00
2022-12-28T12:03:57.618Z,0.80
2022-12-28T12:06:45.941Z,1.03
2022-12-28T12:09:22.084Z,0.60
2022-12-28T12:11:59.433Z,0.70
2022-12-28T12:14:35.618Z,0.80
2022-12-28T12:17:11.974Z,0.80
2022-12-28T12:19:42.622Z,0.50
2022-12-28T12:22:22.039Z,1.10
2022-12-28T12:24:54.385Z,0.60
2022-12-28T12:27:36.672Z,0.73
2022-12-28T12:30:07.945Z,0.67
2022-12-28T12:32:46.304Z,0.70
2022-12-28T12:35:19.403Z,0.90
2022-12-28T12:38:13.516Z,0.70
2022-12-28T12:41:01.115Z,1.23
2022-12-28T12:44:01.708Z,0.73
2022-12-28T12:47:05.880Z,0.83
2022-12-28T12:49:42.026Z,0.90
2022-12-28T12:52:42.268Z,0.63
2022-12-28T12:55:39.257Z,0.90
2022-12-28T12:58:26.853Z,0.67
2022-12-28T13:01:02.584Z,0.50
2022-12-28T13:03:33.534Z,0.73
2022-12-28T13:06:00.566Z,0.77
2022-12-28T13:08:50.059Z,0.80
2022-12-28T13:11:19.060Z,1.03
2022-12-28T13:13:49.088Z,0.90
2022-12-28T13:16:19.023Z,0.80
2022-12-28T13:18:58.903Z,0.70
2022-12-28T13:21:28.424Z,0.70
2022-12-28T13:23:55.351Z,0.90
2022-12-28T13:26:28.302Z,1.00
2022-12-28T13:29:03.031Z,0.87
2022-12-28T13:31:35.984Z,0.80
2022-12-28T13:34:31.074Z,0.87
2022-12-28T13:37:02.638Z,0.70
2022-12-28T13:39:39.940Z,1.57
2022-12-28T13:42:19.444Z,0.80
2022-12-28T13:44:50.442Z,1.30
2022-12-28T13:47:31.880Z,0.80
2022-12-28T13:50:14.543Z,0.90
2022-12-28T13:52:44.726Z,1.53
2022-12-28T13:55:29.090Z,0.80
2022-12-28T13:58:00.817Z,0.90
2022-12-28T14:00:30.592Z,1.17
2022-12-28T14:02:59.655Z,1.30
2022-12-28T14:05:29.043Z,1.20
2022-12-28T14:07:57.536Z,1.20
2022-12-28T14:10:25.305Z,1.17
2022-12-28T14:12:53.815Z,1.27
2022-12-28T14:15:21.017Z,1.00
2022-12-28T14:17:50.664Z,1.07
2022-12-28T14:20:17.823Z,1.40
2022-12-28T14:22:44.912Z,1.10
2022-12-28T14:25:17.995Z,0.90
2022-12-28T14:27:46.721Z,0.90
2022-12-28T14:30:41.971Z,1.10
2022-12-28T14:33:24.950Z,1.20
2022-12-28T14:35:56.506Z,1.10
2022-12-28T14:38:28.327Z,1.27
2022-12-28T14:41:00.239Z,1.57
2022-12-28T14:43:33.565Z,1.03
2022-12-28T14:46:33.765Z,1.27
2022-12-28T14:49:21.440Z,0.83
2022-12-28T14:51:48.335Z,2.90
2022-12-28T14:54:23.490Z,1.27
2022-12-28T14:57:02.766Z,1.23
2022-12-28T14:59:34.333Z,0.80
2022-12-28T15:02:01.272Z,0.90
2022-12-28T15:04:40.056Z,1.20
2022-12-28T15:07:09.113Z,0.77
2022-12-28T15:09:36.551Z,1.57
2022-12-28T15:12:15.335Z,1.60
2022-12-28T15:14:42.437Z,1.03
2022-12-28T15:17:10.231Z,0.90
2022-12-28T15:19:37.039Z,1.00
2022-12-28T15:22:03.849Z,1.30
2022-12-28T15:24:34.096Z,1.20
2022-12-28T15:27:04.921Z,1.40
2022-12-28T15:30:04.382Z,1.30
2022-12-28T15:32:18.755Z,1.97
2022-12-28T15:34:45.449Z,1.37
2022-12-28T15:37:12.155Z,1.20
2022-12-28T15:39:38.986Z,1.70
2022-12-28T15:42:05.746Z,1.33
2022-12-28T15:44:32.556Z,1.20
2022-12-28T15:46:59.385Z,1.85
2022-12-28T15:49:26.652Z,1.50
2022-12-28T15:51:53.456Z,1.42
2022-12-28T15:54:20.145Z,1.73
2022-12-28T15:56:53.591Z,1.13
2022-12-28T15:59:20.411Z,1.70
2022-12-28T16:01:48.176Z,1.42
2022-12-28T16:04:15.528Z,1.17
2022-12-28T16:06:45.066Z,1.92
2022-12-28T16:09:13.777Z,1.33
2022-12-28T16:11:41.482Z,1.40
2022-12-28T16:14:13.025Z,1.73
2022-12-28T16:16:40.558Z,1.80
2022-12-28T16:19:12.023Z,2.92
2022-12-28T16:21:38.759Z,2.57
2022-12-28T16:24:05.830Z,2.40
2022-12-28T16:26:32.583Z,2.30
2022-12-28T16:29:00.766Z,2.27
2022-12-28T16:31:33.002Z,2.10
2022-12-28T16:34:10.308Z,2.10
2022-12-28T16:36:37.151Z,1.83
2022-12-28T16:39:06.983Z,1.83
2022-12-28T16:41:37.413Z,2.00
2022-12-28T16:44:12.907Z,2.60
2022-12-28T16:46:39.795Z,2.37
2022-12-28T16:49:06.524Z,2.10
2022-12-28T16:51:33.179Z,1.80
2022-12-28T16:53:59.930Z,2.25
2022-12-28T16:56:26.732Z,2.05
2022-12-28T16:59:00.592Z,1.80
2022-12-28T17:01:27.556Z,2.20
2022-12-28T17:04:00.106Z,1.92
2022-12-28T17:06:30.333Z,2.00
2022-12-28T17:08:57.027Z,1.90
2022-12-28T17:11:23.767Z,2.60
2022-12-28T17:13:50.498Z,2.40
2022-12-28T17:16:17.265Z,2.30
2022-12-28T17:18:44.053Z,2.80
2022-12-28T17:21:10.884Z,4.15
2022-12-28T17:23:39.779Z,2.78
2022-12-28T17:26:06.969Z,7.10
2022-12-28T17:28:33.820Z,5.25
2022-12-28T17:31:21.162Z,2.85
2022-12-28T17:33:51.471Z,2.78
2022-12-28T17:36:19.683Z,2.92
2022-12-28T17:38:46.477Z,3.00
2022-12-28T17:41:16.697Z,4.00
2022-12-28T17:43:51.527Z,3.55
2022-12-28T17:46:19.209Z,3.47
2022-12-28T17:48:46.153Z,6.15
2022-12-28T17:51:13.129Z,2.80
2022-12-28T17:53:40.370Z,3.10
2022-12-28T17:56:10.056Z,2.70
2022-12-28T17:58:36.897Z,4.03
2022-12-28T18:01:04.545Z,3.70
2022-12-28T18:03:33.882Z,3.03
2022-12-28T18:06:01.241Z,2.70
2022-12-28T18:08:28.868Z,2.80
2022-12-28T18:10:56.029Z,3.05
2022-12-28T18:13:23.780Z,3.10
2022-12-28T18:15:50.853Z,3.15
2022-12-28T18:18:18.286Z,2.53
2022-12-28T18:20:45.120Z,2.63
2022-12-28T18:23:12.836Z,2.78
2022-12-28T18:25:39.630Z,4.28
2022-12-28T18:28:06.390Z,4.78
2022-12-28T18:30:36.510Z,3.80
2022-12-28T18:33:03.347Z,2.47
2022-12-28T18:35:30.132Z,3.17
2022-12-28T18:37:59.907Z,2.85
2022-12-28T18:40:26.671Z,3.13
2022-12-28T18:42:53.435Z,2.53
2022-12-28T18:45:20.211Z,2.67
2022-12-28T18:47:46.946Z,2.65
2022-12-28T18:50:15.583Z,2.63
2022-12-28T18:52:44.994Z,2.17
2022-12-28T18:55:11.755Z,2.30
2022-12-28T18:57:38.526Z,3.20
2022-12-28T19:00:06.423Z,3.50
2022-12-28T19:02:33.826Z,3.13
2022-12-28T19:05:00.645Z,3.20
2022-12-28T19:07:28.043Z,2.97
2022-12-28T19:10:13.989Z,3.15
2022-12-28T19:12:43.046Z,4.68
2022-12-28T19:15:10.671Z,4.78
2022-12-28T19:17:37.480Z,4.82
2022-12-28T19:20:04.755Z,5.80
2022-12-28T19:22:31.743Z,4.75
2022-12-28T19:24:58.781Z,3.72
2022-12-28T19:27:25.525Z,3.78
2022-12-28T19:29:52.377Z,3.70
2022-12-28T19:32:19.223Z,2.95
2022-12-28T19:34:46.003Z,3.72
2022-12-28T19:37:12.800Z,4.18
2022-12-28T19:39:39.761Z,4.63
2022-12-28T19:42:06.591Z,3.28
2022-12-28T19:44:33.864Z,4.40
2022-12-28T19:47:00.608Z,4.78
2022-12-28T19:49:27.511Z,4.30
2022-12-28T19:51:55.602Z,4.70
2022-12-28T19:54:22.700Z,6.90
2022-12-28T19:56:49.465Z,7.82
2022-12-28T19:59:16.361Z,8.77
2022-12-28T20:01:43.150Z,7.68
2022-12-28T20:04:13.988Z,8.35
2022-12-28T20:06:44.029Z,6.47
2022-12-28T20:09:12.437Z,6.85
2022-12-28T20:11:40.693Z,7.00
2022-12-28T20:14:08.183Z,5.13
2022-12-28T20:16:35.646Z,4.70
2022-12-28T20:19:06.501Z,4.70
2022-12-28T20:21:34.149Z,4.03
2022-12-28T20:24:04.526Z,3.30
2022-12-28T20:26:31.858Z,3.22
2022-12-28T20:28:59.648Z,3.80
2022-12-28T20:31:27.536Z,3.90
2022-12-28T20:33:55.069Z,3.60
2022-12-28T20:36:24.603Z,3.08
2022-12-28T20:38:51.839Z,2.40
2022-12-28T20:41:55.035Z,3.67
2022-12-28T20:44:25.931Z,3.22
2022-12-28T20:46:53.347Z,3.80
2022-12-28T20:49:21.235Z,3.65
2022-12-28T20:51:51.133Z,3.70
2022-12-28T20:54:19.492Z,4.00
2022-12-28T20:56:52.388Z,3.90
2022-12-28T20:59:20.943Z,3.50
2022-12-28T21:01:47.719Z,3.60
2022-12-28T21:04:14.659Z,3.75
2022-12-28T21:06:41.567Z,4.07
2022-12-28T21:09:08.461Z,3.20
2022-12-28T21:11:35.267Z,4.03
2022-12-28T21:14:02.091Z,4.45
2022-12-28T21:16:28.872Z,4.22
2022-12-28T21:18:56.095Z,4.15
2022-12-28T21:21:23.133Z,4.75
2022-12-28T21:23:50.181Z,3.88
2022-12-28T21:26:18.696Z,3.35
2022-12-28T21:28:46.088Z,3.72
2022-12-28T21:31:14.007Z,3.85
2022-12-28T21:33:41.572Z,2.85
2022-12-28T21:36:19.086Z,3.33
2022-12-28T21:38:48.050Z,3.67
2022-12-28T21:41:16.372Z,3.25
2022-12-28T21:43:43.198Z,3.40
2022-12-28T21:46:15.054Z,3.55
2022-12-28T21:48:42.600Z,4.20
2022-12-28T21:51:37.354Z,3.20
2022-12-28T21:54:13.148Z,3.40
2022-12-28T21:56:41.318Z,4.22
2022-12-28T21:59:08.694Z,4.10
2022-12-28T22:01:54.881Z,3.65
2022-12-28T22:04:41.595Z,3.88
2022-12-28T22:07:10.903Z,3.80
2022-12-28T22:09:56.919Z,5.15
2022-12-28T22:12:40.059Z,4.20
2022-12-28T22:15:36.131Z,4.60
2022-12-28T22:18:37.079Z,4.38
2022-12-28T22:21:07.302Z,4.82
2022-12-28T22:23:35.041Z,5.15
2022-12-28T22:26:02.327Z,5.03
2022-12-28T22:28:29.145Z,4.80
2022-12-28T22:30:56.152Z,4.80
2022-12-28T22:33:23.024Z,4.97
2022-12-28T22:35:49.747Z,4.25
2022-12-28T22:38:16.487Z,3.80
2022-12-28T22:40:43.189Z,4.10
2022-12-28T22:43:09.914Z,3.90
2022-12-28T22:45:36.633Z,4.63
2022-12-28T22:48:03.604Z,3.45
2022-12-28T22:50:30.350Z,4.07
2022-12-28T22:52:58.212Z,4.20
2022-12-28T22:55:24.954Z,3.63
2022-12-28T22:57:51.660Z,5.60
2022-12-28T23:00:18.561Z,3.22
2022-12-28T23:02:45.460Z,3.15
2022-12-28T23:05:12.403Z,3.63
2022-12-28T23:07:39.628Z,3.90
2022-12-28T23:10:10.209Z,4.00
2022-12-28T23:12:36.895Z,3.80
2022-12-28T23:15:15.911Z,3.38
2022-12-28T23:17:42.678Z,5.03
2022-12-28T23:20:29.605Z,5.45
2022-12-28T23:23:15.278Z,3.55
2022-12-28T23:26:00.500Z,2.90
2022-12-28T23:28:27.727Z,2.97
2022-12-28T23:30:56.581Z,2.60
2022-12-28T23:33:23.779Z,2.38
2022-12-28T23:35:50.602Z,2.00
2022-12-28T23:38:17.377Z,2.60
2022-12-28T23:40:44.499Z,2.15
2022-12-28T23:43:11.360Z,2.53
2022-12-28T23:45:38.247Z,2.08
2022-12-28T23:48:05.420Z,2.20
2022-12-28T23:50:32.261Z,1.85
2022-12-28T23:52:59.013Z,1.70
2022-12-28T23:55:25.964Z,1.80
2022-12-28T23:57:52.712Z,2.30
